Time;durP1;ratioP1;P1;durP2;ratioP2;P2;SDS_P1;SDS_P2;PMS_P1;PMS_P2;Temp;Humidity;BMP_temperature;BMP_pressure;BME280_temperature;BME280_humidity;BME280_pressure;Samples;Min_cycle;Max_cycle;Signal;HPM_P1;HPM_P2
2022/04/03 00:00:31;;;;;;;6.88;4.00;;;0.50;1.00;;;;;;5010646;28;20229;-82
2022/04/03 00:02:58;;;;;;;5.20;3.33;;;0.50;1.00;;;;;;5011191;28;20217;-83
2022/04/03 00:05:24;;;;;;;4.15;3.17;;;0.50;1.00;;;;;;5010778;28;20228;-82
2022/04/03 00:07:51;;;;;;;5.90;3.42;;;0.50;1.00;;;;;;5014398;28;20208;-83
2022/04/03 00:10:18;;;;;;;7.57;2.95;;;0.50;1.00;;;;;;5014251;28;20229;-83
2022/04/03 00:12:46;;;;;;;4.13;3.00;;;1.30;1.00;;;;;;5012983;28;20620;-80
2022/04/03 00:15:14;;;;;;;3.00;2.63;;;0.50;1.00;;;;;;5008335;28;20224;-84
2022/04/03 00:17:41;;;;;;;3.53;3.20;;;0.50;1.00;;;;;;5000118;28;20211;-83
2022/04/03 00:20:09;;;;;;;6.05;3.20;;;0.60;21.20;;;;;;5000825;28;20252;-85
2022/04/03 00:22:35;;;;;;;5.70;2.95;;;0.40;1.00;;;;;;5005757;28;20261;-80
2022/04/03 00:25:03;;;;;;;4.05;2.90;;;0.40;1.00;;;;;;5012822;28;20201;-79
2022/04/03 00:27:30;;;;;;;4.38;3.13;;;0.40;1.00;;;;;;5011796;28;20711;-80
2022/04/03 00:29:57;;;;;;;4.22;3.47;;;0.60;41.20;;;;;;5010448;28;20256;-81
2022/04/03 00:32:25;;;;;;;2.72;2.53;;;0.20;1.00;;;;;;5014318;28;20216;-84
2022/04/03 00:34:51;;;;;;;4.30;2.95;;;0.60;1.00;;;;;;5002497;28;20209;-84
2022/04/03 00:37:18;;;;;;;4.47;3.00;;;0.10;20.30;;;;;;5001538;28;20209;-83
2022/04/03 00:39:44;;;;;;;5.20;3.22;;;0.70;1.00;;;;;;5000447;28;20211;-83
2022/04/03 00:42:11;;;;;;;5.95;2.97;;;0.40;1.00;;;;;;5009245;28;20227;-83
2022/04/03 00:44:37;;;;;;;3.15;2.85;;;0.40;1.00;;;;;;5011419;28;20549;-84
2022/04/03 00:47:05;;;;;;;4.50;2.80;;;0.40;25.70;;;;;;5010528;28;20227;-83
2022/04/03 00:49:33;;;;;;;2.70;2.47;;;0.30;1.00;;;;;;5002975;28;20703;-84
2022/04/03 00:52:00;;;;;;;4.93;3.75;;;0.30;1.00;;;;;;5002033;23;20268;-78
2022/04/03 00:54:27;;;;;;;4.07;3.30;;;0.30;1.00;;;;;;4985085;28;20237;-79
2022/04/03 00:56:54;;;;;;;5.13;2.97;;;0.30;1.00;;;;;;4976345;28;20684;-79
2022/04/03 00:59:21;;;;;;;3.30;2.95;;;0.30;1.00;;;;;;4978756;28;20260;-79
2022/04/03 01:01:47;;;;;;;3.13;2.85;;;0.30;1.00;;;;;;4976795;28;20253;-79
2022/04/03 01:04:14;;;;;;;7.05;4.07;;;0.40;1.00;;;;;;4975584;28;20260;-79
2022/04/03 01:06:42;;;;;;;5.30;3.35;;;0.20;1.00;;;;;;4975897;28;20214;-79
2022/04/03 01:09:10;;;;;;;4.35;3.35;;;0.30;1.00;;;;;;4978896;28;20205;-79
2022/04/03 01:11:38;;;;;;;5.00;3.40;;;0.30;1.00;;;;;;4975988;28;20264;-79
2022/04/03 01:14:05;;;;;;;5.53;4.03;;;0.30;1.00;;;;;;4981246;28;20209;-79
2022/04/03 01:16:32;;;;;;;6.50;3.90;;;0.20;1.00;;;;;;4981036;28;20579;-80
2022/04/03 01:18:59;;;;;;;5.45;3.85;;;0.30;1.00;;;;;;4982469;28;20241;-78
2022/04/03 01:21:25;;;;;;;5.55;3.75;;;0.20;1.00;;;;;;4981250;28;20599;-78
2022/04/03 01:23:55;;;;;;;3.40;3.10;;;0.20;1.00;;;;;;4978990;28;20264;-79
2022/04/03 01:26:23;;;;;;;6.85;4.13;;;0.20;1.00;;;;;;4981103;28;20530;-79
2022/04/03 01:28:51;;;;;;;6.00;3.60;;;0.20;1.00;;;;;;4980250;28;20208;-78
2022/04/03 01:31:17;;;;;;;4.15;3.50;;;0.30;1.00;;;;;;4980437;28;20221;-80
2022/04/03 01:33:44;;;;;;;3.50;2.85;;;0.20;1.00;;;;;;4981463;28;20216;-79
2022/04/03 01:36:11;;;;;;;4.05;3.72;;;0.10;1.00;;;;;;4979312;28;20247;-79
2022/04/03 01:38:37;;;;;;;3.30;3.00;;;0.10;1.00;;;;;;4978698;28;20229;-79
2022/04/03 01:41:04;;;;;;;2.58;2.38;;;0.10;1.00;;;;;;4980493;28;20663;-79
2022/04/03 01:43:32;;;;;;;4.05;3.10;;;0.00;1.00;;;;;;4979399;28;20272;-79
2022/04/03 01:45:58;;;;;;;3.05;2.75;;;0.00;1.00;;;;;;4990269;28;20206;-79
2022/04/03 01:48:25;;;;;;;3.00;2.70;;;0.10;1.00;;;;;;4992807;28;20206;-78
2022/04/03 01:50:51;;;;;;;3.38;2.92;;;0.10;1.00;;;;;;4989270;28;20237;-77
2022/04/03 01:53:18;;;;;;;4.90;3.05;;;0.10;1.00;;;;;;4990591;28;20225;-78
2022/04/03 01:55:44;;;;;;;3.33;3.03;;;0.10;1.00;;;;;;4988520;28;20266;-78
2022/04/03 01:58:11;;;;;;;3.45;2.33;;;0.10;1.00;;;;;;4989591;28;20210;-79
2022/04/03 02:00:40;;;;;;;4.57;2.85;;;0.00;1.00;;;;;;4981216;28;20272;-78
2022/04/03 02:03:07;;;;;;;3.30;2.50;;;0.00;1.00;;;;;;4978939;28;20201;-79
2022/04/03 02:05:33;;;;;;;4.65;3.70;;;0.10;1.00;;;;;;4979359;28;20241;-79
2022/04/03 02:08:00;;;;;;;4.05;3.10;;;0.10;1.00;;;;;;4989285;28;20201;-79
2022/04/03 02:10:26;;;;;;;2.83;2.25;;;0.10;1.00;;;;;;4981955;28;20226;-79
2022/04/03 02:12:53;;;;;;;5.03;2.65;;;0.20;1.00;;;;;;4978925;28;20682;-79
2022/04/03 02:15:20;;;;;;;4.35;2.60;;;0.10;1.00;;;;;;4979088;28;20210;-78
2022/04/03 02:17:50;;;;;;;2.63;2.40;;;0.20;1.00;;;;;;4979959;28;20252;-78
2022/04/03 02:20:17;;;;;;;4.22;2.40;;;0.00;10.00;;;;;;4979785;28;20186;-78
2022/04/03 02:22:43;;;;;;;6.03;3.95;;;0.30;1.00;;;;;;4978057;28;20689;-79
2022/04/03 02:25:11;;;;;;;4.00;3.60;;;0.40;1.00;;;;;;4977015;28;20720;-79
2022/04/03 02:27:38;;;;;;;7.47;4.65;;;0.50;1.00;;;;;;4978680;28;20296;-77
2022/04/03 02:30:08;;;;;;;3.90;3.50;;;0.60;1.00;;;;;;4980343;28;20282;-77
2022/04/03 02:32:35;;;;;;;6.75;4.05;;;0.30;1.00;;;;;;4978607;28;20603;-78
2022/04/03 02:35:06;;;;;;;3.63;3.30;;;0.40;1.00;;;;;;4977869;28;20729;-79
2022/04/03 02:37:32;;;;;;;4.50;4.10;;;0.50;1.00;;;;;;4979202;28;20258;-78
2022/04/03 02:39:59;;;;;;;4.22;3.13;;;0.50;1.00;;;;;;4979927;28;20623;-78
2022/04/03 02:42:26;;;;;;;6.68;3.63;;;0.40;1.00;;;;;;4979515;28;20206;-80
2022/04/03 02:44:52;;;;;;;4.40;3.45;;;0.60;1.00;;;;;;4978605;28;20700;-80
2022/04/03 02:47:19;;;;;;;5.13;3.05;;;0.60;1.00;;;;;;4978859;28;20240;-79
2022/04/03 02:49:45;;;;;;;3.78;2.70;;;0.70;1.00;;;;;;4978474;28;20209;-78
2022/04/03 02:52:13;;;;;;;4.53;3.17;;;0.70;1.00;;;;;;4976613;28;20225;-79
2022/04/03 02:54:41;;;;;;;3.72;3.50;;;0.80;1.00;;;;;;4977354;28;20252;-79
2022/04/03 02:57:08;;;;;;;4.30;3.35;;;0.90;1.00;;;;;;4977486;28;20273;-78
2022/04/03 02:59:35;;;;;;;6.97;4.20;;;0.90;1.00;;;;;;4977357;28;20665;-78
2022/04/03 03:02:01;;;;;;;4.15;3.65;;;0.90;1.00;;;;;;4976859;28;20232;-78
2022/04/03 03:04:28;;;;;;;4.50;3.80;;;0.90;1.00;;;;;;4976891;28;20252;-78
2022/04/03 03:06:54;;;;;;;4.35;3.60;;;0.60;1.00;;;;;;4976776;28;20214;-77
2022/04/03 03:09:22;;;;;;;3.72;3.05;;;0.80;1.00;;;;;;4976896;28;20210;-79
2022/04/03 03:11:49;;;;;;;3.67;3.38;;;0.90;1.00;;;;;;4976302;28;20689;-78
2022/04/03 03:14:16;;;;;;;7.45;3.60;;;0.90;1.00;;;;;;4977310;28;20321;-78
2022/04/03 03:16:43;;;;;;;4.07;3.28;;;0.90;1.00;;;;;;4977015;28;20228;-78
2022/04/03 03:19:09;;;;;;;5.68;3.80;;;0.90;1.00;;;;;;4982558;28;20216;-78
2022/04/03 03:21:36;;;;;;;4.00;3.40;;;0.80;1.00;;;;;;4992931;28;20232;-77
2022/04/03 03:24:03;;;;;;;3.58;3.28;;;0.70;1.00;;;;;;4993920;28;20215;-77
2022/04/03 03:26:31;;;;;;;6.22;3.45;;;0.70;1.00;;;;;;4987490;28;20233;-77
2022/04/03 03:28:57;;;;;;;5.97;3.95;;;0.80;1.00;;;;;;4978654;28;20206;-79
2022/04/03 03:31:24;;;;;;;6.03;3.83;;;0.80;1.00;;;;;;4977900;28;20222;-79
2022/04/03 03:33:51;;;;;;;4.45;3.50;;;0.80;1.00;;;;;;4976811;28;20201;-77
2022/04/03 03:36:17;;;;;;;13.63;5.05;;;0.90;1.00;;;;;;4976284;28;20233;-79
2022/04/03 03:38:44;;;;;;;3.95;3.60;;;1.00;1.00;;;;;;4976404;28;20739;-77
2022/04/03 03:41:10;;;;;;;4.20;3.78;;;1.00;1.00;;;;;;4976974;28;20265;-78
2022/04/03 03:43:38;;;;;;;5.10;4.20;;;1.00;1.00;;;;;;4976458;28;20202;-78
2022/04/03 03:46:05;;;;;;;4.82;4.13;;;0.90;1.00;;;;;;4976208;28;20251;-79
2022/04/03 03:48:31;;;;;;;3.78;3.38;;;0.90;1.00;;;;;;4976573;28;20209;-79
2022/04/03 03:50:58;;;;;;;3.95;3.38;;;0.90;1.00;;;;;;4976068;28;20246;-78
2022/04/03 03:53:24;;;;;;;4.72;3.50;;;0.90;1.00;;;;;;4976176;28;20307;-79
2022/04/03 03:55:51;;;;;;;5.32;3.97;;;1.00;1.00;;;;;;4976186;28;20202;-78
2022/04/03 03:58:18;;;;;;;5.40;3.33;;;1.00;1.00;;;;;;4977404;28;20673;-78
2022/04/03 04:00:46;;;;;;;5.13;4.57;;;1.00;1.00;;;;;;4979740;28;20257;-78
2022/04/03 04:03:12;;;;;;;5.68;4.13;;;1.00;1.00;;;;;;4977907;28;20197;-78
2022/04/03 04:05:39;;;;;;;3.95;3.08;;;1.00;1.00;;;;;;4981199;28;20209;-79
2022/04/03 04:08:07;;;;;;;4.80;3.50;;;1.10;1.00;;;;;;4984932;28;20213;-79
2022/04/03 04:10:34;;;;;;;5.57;3.75;;;1.10;1.00;;;;;;4987969;28;20240;-78
2022/04/03 04:13:01;;;;;;;4.95;4.43;;;1.00;1.00;;;;;;4983472;28;20232;-78
2022/04/03 04:15:28;;;;;;;5.47;4.38;;;1.10;1.00;;;;;;4985375;28;20205;-78
2022/04/03 04:17:56;;;;;;;4.68;3.20;;;1.00;1.00;;;;;;4988019;28;20247;-78
2022/04/03 04:20:23;;;;;;;3.17;2.88;;;1.10;1.00;;;;;;4988341;28;20287;-78
2022/04/03 04:22:51;;;;;;;3.75;3.40;;;1.10;1.00;;;;;;4986787;28;20205;-78
2022/04/03 04:25:19;;;;;;;7.35;3.53;;;1.10;1.00;;;;;;4977748;28;20269;-79
2022/04/03 04:27:47;;;;;;;5.72;3.50;;;1.20;1.00;;;;;;4976610;28;20229;-79
2022/04/03 04:30:15;;;;;;;8.70;3.67;;;0.90;1.00;;;;;;4982265;28;20229;-78
2022/04/03 04:32:42;;;;;;;3.65;3.35;;;1.00;1.00;;;;;;4994512;28;20245;-78
2022/04/03 04:35:13;;;;;;;4.32;3.53;;;1.10;1.00;;;;;;4996096;28;20209;-78
2022/04/03 04:37:40;;;;;;;4.35;3.10;;;1.00;1.00;;;;;;4992533;28;20237;-78
2022/04/03 04:40:08;;;;;;;3.50;3.20;;;1.10;1.00;;;;;;4984208;28;20213;-79
2022/04/03 04:42:35;;;;;;;3.35;3.05;;;0.90;1.00;;;;;;4991543;28;20210;-78
2022/04/03 04:45:01;;;;;;;5.28;3.35;;;0.80;1.00;;;;;;4993731;28;20209;-77
2022/04/03 04:47:28;;;;;;;4.28;3.25;;;1.00;1.00;;;;;;4994599;28;20214;-78
2022/04/03 04:49:54;;;;;;;3.78;3.47;;;1.00;1.00;;;;;;4996991;28;20210;-78
2022/04/03 04:52:22;;;;;;;6.20;4.40;;;0.90;1.00;;;;;;4997650;28;20704;-78
2022/04/03 04:54:49;;;;;;;5.05;4.00;;;1.00;1.00;;;;;;4995901;28;20237;-78
2022/04/03 04:57:15;;;;;;;5.72;4.68;;;0.90;1.00;;;;;;4995840;28;20206;-78
2022/04/03 04:59:42;;;;;;;5.30;4.65;;;0.90;1.00;;;;;;4993361;28;20272;-78
2022/04/03 05:02:09;;;;;;;5.70;4.65;;;1.00;1.00;;;;;;4993968;28;20217;-78
2022/04/03 05:04:35;;;;;;;5.30;4.72;;;0.70;1.00;;;;;;4994337;28;20206;-78
2022/04/03 05:07:02;;;;;;;6.20;5.70;;;0.70;1.00;;;;;;4991659;28;20210;-78
2022/04/03 05:09:31;;;;;;;5.88;4.18;;;0.80;1.00;;;;;;4992920;28;20206;-78
2022/04/03 05:11:59;;;;;;;6.88;5.85;;;0.80;1.00;;;;;;4986249;28;20284;-79
2022/04/03 05:14:26;;;;;;;5.88;4.90;;;0.80;1.00;;;;;;4985077;28;20562;-78
2022/04/03 05:16:52;;;;;;;5.28;4.80;;;0.80;99.90;;;;;;4987226;28;20230;-79
2022/04/03 05:19:19;;;;;;;4.97;4.47;;;0.80;99.90;;;;;;4986604;28;20263;-80
2022/04/03 05:21:46;;;;;;;4.05;3.67;;;0.90;1.00;;;;;;4981071;28;20229;-80
2022/04/03 05:24:12;;;;;;;4.85;3.20;;;0.90;99.90;;;;;;4981377;28;20202;-80
2022/04/03 05:26:40;;;;;;;3.38;3.08;;;1.00;99.90;;;;;;4992914;28;20281;-78
2022/04/03 05:29:07;;;;;;;6.30;3.85;;;1.00;99.90;;;;;;4981270;28;20634;-80
2022/04/03 05:31:34;;;;;;;3.42;3.10;;;1.10;99.90;;;;;;4980904;28;20596;-80
2022/04/03 05:34:00;;;;;;;7.00;3.22;;;1.00;99.90;;;;;;4980812;28;20296;-78
2022/04/03 05:36:27;;;;;;;7.47;4.15;;;1.10;99.90;;;;;;4980844;28;20233;-79
2022/04/03 05:38:54;;;;;;;4.53;3.50;;;1.20;99.90;;;;;;4983499;28;20206;-79
2022/04/03 05:41:22;;;;;;;7.53;5.95;;;1.10;99.90;;;;;;4981820;28;20629;-78
2022/04/03 05:43:50;;;;;;;5.97;4.38;;;1.20;99.90;;;;;;4985532;28;20632;-78
2022/04/03 05:46:17;;;;;;;9.40;5.53;;;1.10;99.90;;;;;;4984515;28;20201;-78
2022/04/03 05:48:43;;;;;;;10.55;6.47;;;1.20;99.90;;;;;;4981859;28;20206;-79
2022/04/03 05:51:10;;;;;;;5.07;4.35;;;1.20;99.90;;;;;;4979666;28;20268;-77
2022/04/03 05:53:37;;;;;;;4.35;4.00;;;1.20;99.90;;;;;;4979242;28;20712;-78
2022/04/03 05:56:04;;;;;;;5.82;3.75;;;1.30;99.90;;;;;;4979969;28;20673;-78
2022/04/03 05:58:30;;;;;;;4.47;3.97;;;1.40;99.90;;;;;;4979824;28;20236;-78
2022/04/03 06:00:58;;;;;;;4.97;3.70;;;1.30;99.90;;;;;;4978465;28;20254;-79
2022/04/03 06:03:25;;;;;;;8.40;3.50;;;1.30;99.90;;;;;;4978420;28;20209;-78
2022/04/03 06:05:52;;;;;;;3.70;3.40;;;1.30;99.90;;;;;;4978348;28;20198;-79
2022/04/03 06:08:18;;;;;;;4.03;3.63;;;1.40;99.90;;;;;;4978549;28;20572;-79
2022/04/03 06:10:45;;;;;;;3.30;3.00;;;1.40;99.90;;;;;;4978071;28;20229;-79
2022/04/03 06:13:13;;;;;;;3.22;2.75;;;1.50;99.90;;;;;;4977580;28;20869;-79
2022/04/03 06:15:42;;;;;;;3.55;3.00;;;1.40;99.90;;;;;;4977844;28;20869;-78
2022/04/03 06:18:11;;;;;;;4.18;3.78;;;1.40;99.90;;;;;;4979750;28;20206;-79
2022/04/03 06:20:39;;;;;;;4.90;2.90;;;1.30;99.90;;;;;;4978921;28;20313;-78
2022/04/03 06:23:13;;;;;;;3.85;3.55;;;1.30;99.90;;;;;;4978943;28;20205;-79
2022/04/03 06:25:39;;;;;;;3.67;3.22;;;1.40;99.90;;;;;;4978857;28;20194;-78
2022/04/03 06:28:07;;;;;;;4.03;3.65;;;1.40;99.90;;;;;;4979083;28;20205;-77
2022/04/03 06:30:34;;;;;;;4.85;4.45;;;1.50;1.00;;;;;;4983144;28;20257;-79
2022/04/03 06:33:00;;;;;;;4.57;3.05;;;1.60;99.90;;;;;;4982481;28;20233;-79
2022/04/03 06:35:28;;;;;;;3.58;2.92;;;1.80;99.90;;;;;;4978205;28;20214;-78
2022/04/03 06:37:55;;;;;;;4.50;2.92;;;1.80;99.90;;;;;;4980698;28;20593;-79
2022/04/03 06:40:23;;;;;;;6.38;3.50;;;2.00;99.90;;;;;;4985206;28;20226;-79
2022/04/03 06:42:50;;;;;;;5.03;3.53;;;2.00;99.90;;;;;;4985863;28;20226;-79
2022/04/03 06:45:17;;;;;;;3.47;3.17;;;1.90;99.90;;;;;;4980837;28;20237;-79
2022/04/03 06:47:44;;;;;;;3.90;3.05;;;1.50;1.00;;;;;;4979915;28;20229;-78
2022/04/03 06:50:11;;;;;;;3.15;2.85;;;1.20;1.00;;;;;;4978017;28;20202;-78
2022/04/03 06:52:39;;;;;;;3.55;3.22;;;1.70;1.00;;;;;;5009398;23;20229;-83
2022/04/03 06:55:07;;;;;;;4.72;3.25;;;1.60;99.90;;;;;;5001078;28;20201;-82
2022/04/03 06:57:33;;;;;;;2.92;2.70;;;1.60;99.90;;;;;;5001839;28;20201;-82
2022/04/03 07:00:00;;;;;;;4.03;2.95;;;1.80;99.90;;;;;;5000990;28;20781;-83
2022/04/03 07:02:27;;;;;;;3.60;3.35;;;1.90;99.90;;;;;;5000868;28;20790;-83
2022/04/03 07:04:53;;;;;;;4.25;3.60;;;2.00;1.00;;;;;;5000546;28;20205;-83
2022/04/03 07:07:24;;;;;;;4.03;3.20;;;2.20;99.90;;;;;;5000829;28;20201;-83
2022/04/03 07:09:53;;;;;;;5.47;3.72;;;2.20;99.90;;;;;;5000465;28;20215;-84
2022/04/03 07:12:20;;;;;;;4.25;3.40;;;2.30;99.90;;;;;;5001501;28;20256;-84
2022/04/03 07:14:47;;;;;;;3.63;3.30;;;2.60;99.90;;;;;;5004759;28;20259;-84
2022/04/03 07:17:14;;;;;;;3.40;3.10;;;2.40;99.90;;;;;;5005362;28;20247;-83
2022/04/03 07:19:41;;;;;;;4.25;3.95;;;2.50;1.00;;;;;;5004027;28;20221;-83
2022/04/03 07:22:08;;;;;;;4.07;3.53;;;2.50;99.90;;;;;;5004330;28;20225;-85
2022/04/03 07:24:35;;;;;;;4.32;3.38;;;2.40;99.90;;;;;;5010229;28;20207;-83
2022/04/03 07:27:03;;;;;;;4.15;3.70;;;3.20;1.00;;;;;;5008756;28;20201;-81
2022/04/03 07:29:30;;;;;;;4.40;3.28;;;3.10;99.90;;;;;;5011958;28;20731;-83
2022/04/03 07:32:01;;;;;;;4.15;3.35;;;3.20;99.90;;;;;;5010756;28;20225;-85
2022/04/03 07:34:29;;;;;;;3.67;3.38;;;3.30;99.90;;;;;;5010204;28;20658;-84
2022/04/03 07:36:57;;;;;;;3.80;3.30;;;;;;;;;;5010276;28;20291;-82
2022/04/03 07:39:23;;;;;;;6.25;3.17;;;3.60;1.00;;;;;;5010569;28;20209;-82
2022/04/03 07:41:50;;;;;;;3.45;3.15;;;3.40;99.90;;;;;;5008138;28;20291;-84
2022/04/03 07:44:18;;;;;;;5.28;3.10;;;3.10;99.90;;;;;;5008855;28;20213;-84
2022/04/03 07:46:45;;;;;;;4.03;2.63;;;3.60;99.90;;;;;;5006745;28;20600;-84
2022/04/03 07:49:12;;;;;;;3.53;2.50;;;3.70;99.90;;;;;;5003170;28;20205;-81
2022/04/03 07:51:38;;;;;;;3.90;3.20;;;4.00;99.90;;;;;;5013009;28;20232;-82
2022/04/03 07:54:05;;;;;;;2.70;2.50;;;4.20;1.00;;;;;;5017825;28;20221;-82
2022/04/03 07:56:32;;;;;;;4.88;2.53;;;4.00;99.90;;;;;;5018579;28;20185;-83
2022/04/03 07:58:59;;;;;;;2.42;2.30;;;4.20;99.90;;;;;;5015265;28;20208;-79
2022/04/03 08:01:28;;;;;;;5.50;3.22;;;4.20;99.90;;;;;;5011516;28;20236;-81
2022/04/03 08:03:54;;;;;;;3.13;2.83;;;4.00;99.90;;;;;;5013000;28;20197;-82
2022/04/03 08:06:21;;;;;;;2.45;2.15;;;4.00;99.90;;;;;;5007181;28;20201;-82
2022/04/03 08:08:48;;;;;;;2.95;2.65;;;3.60;1.00;;;;;;5002411;28;20231;-84
2022/04/03 08:11:15;;;;;;;2.78;2.55;;;3.70;99.90;;;;;;5005739;28;20227;-84
2022/04/03 08:13:41;;;;;;;4.90;2.50;;;4.00;99.90;;;;;;5009553;28;20220;-84
2022/04/03 08:16:08;;;;;;;2.47;2.10;;;4.20;99.90;;;;;;5010642;28;20233;-82
2022/04/03 08:18:36;;;;;;;2.60;2.40;;;4.20;99.90;;;;;;5011997;28;20268;-80
2022/04/03 08:21:03;;;;;;;2.95;2.65;;;4.30;99.90;;;;;;5010522;28;20221;-82
2022/04/03 08:23:30;;;;;;;3.03;2.20;;;4.00;99.90;;;;;;5010130;28;20231;-81
2022/04/03 08:25:56;;;;;;;2.75;2.45;;;4.10;99.90;;;;;;5011414;28;20213;-83
2022/04/03 08:28:23;;;;;;;3.63;3.08;;;4.10;99.90;;;;;;5008957;28;20201;-83
2022/04/03 08:30:50;;;;;;;3.15;2.30;;;4.00;1.00;;;;;;5007726;28;20205;-82
2022/04/03 08:33:16;;;;;;;3.03;2.72;;;4.20;99.90;;;;;;5008861;28;20256;-83
2022/04/03 08:35:45;;;;;;;2.88;2.67;;;4.30;99.90;;;;;;5008322;28;20215;-82
2022/04/03 08:38:12;;;;;;;2.33;2.13;;;4.40;99.90;;;;;;5004075;28;20212;-83
2022/04/03 08:40:38;;;;;;;2.47;2.28;;;4.30;99.90;;;;;;5001249;28;20204;-83
2022/04/03 08:43:06;;;;;;;4.95;2.40;;;4.20;99.90;;;;;;5000828;28;20212;-83
2022/04/03 08:45:34;;;;;;;2.95;2.00;;;4.50;99.90;;;;;;4999947;28;20212;-83
2022/04/03 08:48:02;;;;;;;2.85;2.63;;;4.40;1.00;;;;;;4999493;28;20267;-84
2022/04/03 08:50:30;;;;;;;5.32;2.72;;;4.30;99.90;;;;;;4999985;28;20206;-84
2022/04/03 08:53:01;;;;;;;2.10;2.00;;;4.20;99.90;;;;;;4999763;28;20209;-83
2022/04/03 08:55:29;;;;;;;5.90;2.58;;;4.20;99.90;;;;;;4999467;28;20197;-83
2022/04/03 08:57:56;;;;;;;2.70;2.50;;;4.10;99.90;;;;;;4999848;28;20572;-83
2022/04/03 09:00:23;;;;;;;2.20;2.00;;;4.30;99.90;;;;;;5000340;28;20240;-83
2022/04/03 09:02:51;;;;;;;2.90;2.70;;;4.50;99.90;;;;;;4999785;28;20237;-83
2022/04/03 09:05:18;;;;;;;2.78;2.58;;;4.60;99.90;;;;;;5000353;28;20237;-83
2022/04/03 09:07:58;;;;;;;3.50;2.80;;;4.50;99.90;;;;;;5001051;28;20264;-83
2022/04/03 09:10:26;;;;;;;2.40;2.20;;;4.80;99.90;;;;;;5000092;28;20240;-82
2022/04/03 09:12:53;;;;;;;3.60;2.20;;;4.90;99.90;;;;;;5000322;28;20229;-83
2022/04/03 09:15:21;;;;;;;2.70;2.50;;;5.30;99.90;;;;;;5006659;28;20231;-83
2022/04/03 09:17:52;;;;;;;3.03;2.78;;;5.30;99.90;;;;;;5008569;28;20213;-83
2022/04/03 09:20:22;;;;;;;3.88;2.15;;;5.30;99.90;;;;;;5001917;28;20257;-84
2022/04/03 09:22:52;;;;;;;4.13;3.40;;;5.30;99.90;;;;;;5001571;28;20311;-83
2022/04/03 09:25:27;;;;;;;2.50;2.30;;;5.50;99.90;;;;;;5000635;28;20205;-83
2022/04/03 09:27:54;;;;;;;2.45;2.25;;;5.80;99.90;;;;;;5000979;28;20200;-83
2022/04/03 09:30:22;;;;;;;2.30;2.00;;;5.50;99.90;;;;;;5000469;28;20205;-83
2022/04/03 09:32:50;;;;;;;2.35;2.10;;;5.80;99.90;;;;;;5001321;28;20252;-83
2022/04/03 09:35:19;;;;;;;3.83;2.47;;;5.70;99.90;;;;;;5004579;28;20221;-83
2022/04/03 09:38:05;;;;;;;2.50;2.30;;;5.60;99.90;;;;;;5004859;28;20205;-83
2022/04/03 09:40:34;;;;;;;5.00;2.60;;;5.30;1.00;;;;;;5013240;28;20205;-80
2022/04/03 09:43:19;;;;;;;2.08;1.88;;;5.40;99.90;;;;;;5015893;28;20237;-82
2022/04/03 09:45:51;;;;;;;3.22;2.42;;;5.40;99.90;;;;;;5014995;28;20205;-81
2022/04/03 09:48:23;;;;;;;3.22;2.38;;;5.70;99.90;;;;;;5013686;28;20209;-81
2022/04/03 09:50:57;;;;;;;2.80;2.60;;;5.90;1.00;;;;;;5011557;28;20236;-81
2022/04/03 09:53:24;;;;;;;2.53;2.30;;;6.00;99.90;;;;;;5009264;28;20193;-82
2022/04/03 09:55:52;;;;;;;2.45;2.10;;;5.60;99.90;;;;;;5005419;28;20205;-83
2022/04/03 09:58:19;;;;;;;2.70;2.50;;;5.80;99.90;;;;;;5004298;28;20205;-82
2022/04/03 10:00:46;;;;;;;3.15;2.85;;;6.20;1.00;;;;;;5003179;28;20201;-83
2022/04/03 10:03:14;;;;;;;4.32;3.80;;;5.90;99.90;;;;;;5001688;28;20204;-84
2022/04/03 10:05:42;;;;;;;2.90;2.70;;;5.70;99.90;;;;;;5002833;28;20340;-84
2022/04/03 10:08:09;;;;;;;4.85;2.58;;;5.70;99.90;;;;;;5007167;28;20204;-82
2022/04/03 10:10:37;;;;;;;2.50;2.30;;;5.90;99.90;;;;;;5006692;28;20214;-83
2022/04/03 10:13:06;;;;;;;1.95;1.85;;;6.30;1.00;;;;;;5005305;28;20216;-84
2022/04/03 10:15:34;;;;;;;2.85;2.28;;;6.10;99.90;;;;;;5011281;28;20225;-81
2022/04/03 10:18:02;;;;;;;2.30;2.10;;;6.00;99.90;;;;;;5012704;28;20219;-83
2022/04/03 10:20:30;;;;;;;2.78;2.55;;;5.90;99.90;;;;;;5012043;28;20216;-82
2022/04/03 10:23:04;;;;;;;3.65;3.10;;;6.00;99.90;;;;;;5012382;28;20209;-84
2022/04/03 10:25:37;;;;;;;2.42;2.22;;;6.10;99.90;;;;;;5013177;28;20189;-82
2022/04/03 10:28:06;;;;;;;3.15;1.90;;;6.30;99.90;;;;;;5006991;28;20236;-82
2022/04/03 10:30:38;;;;;;;2.47;2.28;;;6.20;99.90;;;;;;5006693;28;20209;-84
2022/04/03 10:33:05;;;;;;;5.28;2.55;;;6.20;99.90;;;;;;5006387;28;20205;-81
2022/04/03 10:35:32;;;;;;;2.45;2.15;;;6.30;99.90;;;;;;5005660;28;20224;-82
2022/04/03 10:38:01;;;;;;;2.70;2.50;;;6.20;99.90;;;;;;5013000;28;20248;-82
2022/04/03 10:40:33;;;;;;;4.15;2.92;;;6.40;99.90;;;;;;5012894;28;20277;-84
2022/04/03 10:43:06;;;;;;;3.30;2.85;;;6.50;99.90;;;;;;5016051;28;20181;-82
2022/04/03 10:45:34;;;;;;;2.47;2.10;;;6.50;99.90;;;;;;5013313;28;20169;-81
2022/04/03 10:48:34;;;;;;;3.00;2.70;;;6.90;99.90;;;;;;5014363;28;20204;-83
2022/04/03 10:51:09;;;;;;;4.15;2.60;;;6.80;99.90;;;;;;4989949;28;20245;-84
2022/04/03 10:53:39;;;;;;;2.47;2.28;;;6.90;99.90;;;;;;4987850;28;20224;-84
2022/04/03 10:56:10;;;;;;;2.30;2.10;;;6.00;99.90;;;;;;4994774;28;20223;-84
2022/04/03 10:58:45;;;;;;;2.47;2.28;;;6.10;99.90;;;;;;5004271;28;20185;-84
2022/04/03 11:01:27;;;;;;;2.58;2.35;;;6.20;99.90;;;;;;5002246;28;20228;-83
2022/04/03 11:03:59;;;;;;;2.65;2.45;;;6.30;99.90;;;;;;5003271;28;20209;-83
2022/04/03 11:06:34;;;;;;;3.40;2.75;;;6.20;99.90;;;;;;5002234;28;20181;-84
2022/04/03 11:09:09;;;;;;;2.55;2.35;;;6.10;99.90;;;;;;5002348;28;20192;-80
2022/04/03 11:11:52;;;;;;;3.33;2.50;;;6.30;99.90;;;;;;5006710;28;20225;-85
2022/04/03 11:14:52;;;;;;;2.15;2.05;;;6.20;99.90;;;;;;5004220;28;20231;-83
2022/04/03 11:17:20;;;;;;;2.80;2.60;;;6.40;99.90;;;;;;5004220;28;20212;-83
2022/04/03 11:19:48;;;;;;;3.13;2.45;;;6.70;99.90;;;;;;5004939;28;20216;-83
2022/04/03 11:22:17;;;;;;;2.80;2.60;;;6.30;99.90;;;;;;5002520;28;20221;-82
2022/04/03 11:24:45;;;;;;;3.65;2.53;;;6.50;99.90;;;;;;5003341;28;20205;-83
2022/04/03 11:27:13;;;;;;;3.45;2.67;;;6.50;99.90;;;;;;5000928;28;20236;-84
2022/04/03 11:29:40;;;;;;;2.42;2.33;;;6.60;99.90;;;;;;5001279;28;20205;-84
2022/04/03 11:32:09;;;;;;;2.50;2.30;;;6.70;99.90;;;;;;5002491;28;20248;-84
2022/04/03 11:34:36;;;;;;;2.60;2.40;;;6.70;99.90;;;;;;5001441;28;20229;-84
2022/04/03 11:37:07;;;;;;;3.88;2.30;;;6.80;99.90;;;;;;5003359;28;20220;-83
2022/04/03 11:39:36;;;;;;;3.70;3.28;;;6.90;99.90;;;;;;5008688;28;20200;-82
2022/04/03 11:42:05;;;;;;;2.70;2.50;;;6.80;99.90;;;;;;5012903;28;20297;-82
2022/04/03 11:44:37;;;;;;;2.97;2.63;;;6.90;99.90;;;;;;5013398;28;20206;-81
2022/04/03 11:47:06;;;;;;;3.13;2.80;;;7.10;99.90;;;;;;5014097;28;20196;-81
2022/04/03 11:49:36;;;;;;;3.90;2.63;;;7.10;99.90;;;;;;5014762;28;20209;-82
2022/04/03 11:52:09;;;;;;;4.25;3.35;;;6.90;99.90;;;;;;5017152;28;20261;-81
2022/04/03 11:54:37;;;;;;;3.33;3.03;;;7.30;99.90;;;;;;5015610;28;20258;-84
2022/04/03 11:57:11;;;;;;;2.90;2.70;;;7.10;99.90;;;;;;5008594;28;20463;-84
2022/04/03 11:59:42;;;;;;;3.40;2.60;;;7.00;99.90;;;;;;5003205;28;20212;-83
2022/04/03 12:02:11;;;;;;;3.53;2.70;;;7.20;99.90;;;;;;5002229;28;20284;-83
2022/04/03 12:04:43;;;;;;;3.20;3.00;;;7.10;99.90;;;;;;5001607;28;20436;-84
2022/04/03 12:07:13;;;;;;;4.10;2.70;;;7.40;99.90;;;;;;5001605;28;20261;-82
2022/04/03 12:09:41;;;;;;;4.30;3.00;;;7.30;99.90;;;;;;5002922;28;20575;-84
2022/04/03 12:12:09;;;;;;;2.75;2.53;;;7.10;99.90;;;;;;5001381;28;20444;-82
2022/04/03 12:14:40;;;;;;;2.88;2.67;;;7.10;99.90;;;;;;5002278;28;20218;-83
2022/04/03 12:17:09;;;;;;;2.60;2.40;;;7.40;99.90;;;;;;5008934;28;20187;-84
2022/04/03 12:19:38;;;;;;;3.20;2.63;;;7.80;99.90;;;;;;5008306;28;20453;-82
2022/04/03 12:22:08;;;;;;;2.53;2.37;;;8.00;99.90;;;;;;5013367;28;20210;-85
2022/04/03 12:24:36;;;;;;;3.83;2.70;;;7.60;99.90;;;;;;5014751;28;20498;-83
2022/04/03 12:27:07;;;;;;;3.17;2.85;;;7.50;1.00;;;;;;5011168;28;20200;-81
2022/04/03 12:29:40;;;;;;;4.30;2.50;;;7.40;99.90;;;;;;5011254;28;20205;-83
2022/04/03 12:32:12;;;;;;;5.38;3.22;;;7.30;1.00;;;;;;5010307;28;20472;-82
2022/04/03 12:35:07;;;;;;;4.03;2.17;;;7.30;99.90;;;;;;5008245;28;20251;-84
2022/04/03 12:37:41;;;;;;;6.28;2.45;;;7.70;99.90;;;;;;5006422;28;20221;-83
2022/04/03 12:40:08;;;;;;;4.22;3.17;;;7.70;99.90;;;;;;5005583;28;20202;-84
2022/04/03 12:42:42;;;;;;;2.90;2.70;;;7.70;99.90;;;;;;5006289;28;20225;-84
2022/04/03 12:45:19;;;;;;;2.42;2.20;;;7.20;99.90;;;;;;5001899;28;20186;-83
2022/04/03 12:48:04;;;;;;;3.43;2.50;;;7.60;99.90;;;;;;5003672;28;20281;-84
2022/04/03 12:50:42;;;;;;;4.70;2.72;;;7.70;99.90;;;;;;5003503;28;20446;-83
2022/04/03 12:53:15;;;;;;;4.60;2.40;;;8.60;99.90;;;;;;5015866;23;20230;-78
2022/04/03 12:55:48;;;;;;;5.75;3.30;;;7.50;99.90;;;;;;5000270;28;20456;-80
2022/04/03 12:58:33;;;;;;;2.30;2.10;;;7.60;99.90;;;;;;5000487;28;20245;-80
2022/04/03 13:01:12;;;;;;;2.50;2.10;;;8.00;99.90;;;;;;4999308;28;20780;-79
2022/04/03 13:03:44;;;;;;;4.07;2.60;;;8.30;99.90;;;;;;4998928;28;20538;-79
2022/04/03 13:06:13;;;;;;;3.13;2.30;;;8.20;99.90;;;;;;4999483;28;20265;-79
2022/04/03 13:08:44;;;;;;;2.07;1.90;;;8.20;99.90;;;;;;5003979;28;20447;-79